sensor_id;sensor_type;location;lat;lon;timestamp;P1;durP1;ratioP1;P2;durP2;ratioP2
46845;SDS011;33947;46.804;134.252;2023-06-22T00:00:45;19.10;;;4.95;;
46845;SDS011;33947;46.804;134.252;2023-06-22T00:04:00;8.93;;;4.35;;
46845;SDS011;33947;46.804;134.252;2023-06-22T00:07:21;7.03;;;3.70;;
46845;SDS011;33947;46.804;134.252;2023-06-22T00:10:42;6.60;;;3.72;;
46845;SDS011;33947;46.804;134.252;2023-06-22T00:13:54;6.75;;;3.88;;
46845;SDS011;33947;46.804;134.252;2023-06-22T00:17:02;10.93;;;4.50;;
46845;SDS011;33947;46.804;134.252;2023-06-22T00:20:08;9.02;;;4.20;;
46845;SDS011;33947;46.804;134.252;2023-06-22T00:23:18;13.00;;;4.75;;
46845;SDS011;33947;46.804;134.252;2023-06-22T00:26:57;5.03;;;3.70;;
46845;SDS011;33947;46.804;134.252;2023-06-22T00:30:08;11.10;;;3.92;;
46845;SDS011;33947;46.804;134.252;2023-06-22T00:33:18;5.57;;;3.70;;
46845;SDS011;33947;46.804;134.252;2023-06-22T00:36:25;5.15;;;3.83;;
46845;SDS011;33947;46.804;134.252;2023-06-22T00:39:34;10.77;;;4.20;;
46845;SDS011;33947;46.804;134.252;2023-06-22T00:42:43;9.30;;;4.15;;
46845;SDS011;33947;46.804;134.252;2023-06-22T00:45:54;12.82;;;4.30;;
46845;SDS011;33947;46.804;134.252;2023-06-22T00:49:12;6.07;;;3.63;;
46845;SDS011;33947;46.804;134.252;2023-06-22T00:52:24;22.20;;;5.40;;
46845;SDS011;33947;46.804;134.252;2023-06-22T00:55:44;9.07;;;3.95;;
46845;SDS011;33947;46.804;134.252;2023-06-22T00:58:59;5.40;;;3.78;;
46845;SDS011;33947;46.804;134.252;2023-06-22T01:02:14;3.63;;;3.20;;
46845;SDS011;33947;46.804;134.252;2023-06-22T01:05:34;8.75;;;3.60;;
46845;SDS011;33947;46.804;134.252;2023-06-22T01:08:51;8.00;;;3.45;;
46845;SDS011;33947;46.804;134.252;2023-06-22T01:12:09;9.48;;;3.75;;
46845;SDS011;33947;46.804;134.252;2023-06-22T01:15:35;5.85;;;3.60;;
46845;SDS011;33947;46.804;134.252;2023-06-22T01:26:56;10.02;;;4.03;;
46845;SDS011;33947;46.804;134.252;2023-06-22T01:30:11;7.00;;;3.83;;
46845;SDS011;33947;46.804;134.252;2023-06-22T01:33:25;16.02;;;5.22;;
46845;SDS011;33947;46.804;134.252;2023-06-22T01:36:37;8.25;;;4.40;;
46845;SDS011;33947;46.804;134.252;2023-06-22T01:39:44;13.57;;;4.82;;
46845;SDS011;33947;46.804;134.252;2023-06-22T01:43:05;8.20;;;3.92;;
46845;SDS011;33947;46.804;134.252;2023-06-22T01:49:23;13.57;;;4.80;;
46845;SDS011;33947;46.804;134.252;2023-06-22T01:52:33;16.10;;;5.25;;
46845;SDS011;33947;46.804;134.252;2023-06-22T01:55:42;13.80;;;4.50;;
46845;SDS011;33947;46.804;134.252;2023-06-22T01:59:00;18.88;;;5.82;;
46845;SDS011;33947;46.804;134.252;2023-06-22T02:02:19;8.57;;;4.45;;
46845;SDS011;33947;46.804;134.252;2023-06-22T02:06:17;13.85;;;4.47;;
46845;SDS011;33947;46.804;134.252;2023-06-22T02:10:21;12.60;;;4.47;;
46845;SDS011;33947;46.804;134.252;2023-06-22T02:13:37;7.88;;;4.03;;
46845;SDS011;33947;46.804;134.252;2023-06-22T02:22:10;10.45;;;4.60;;
46845;SDS011;33947;46.804;134.252;2023-06-22T02:26:16;10.85;;;4.32;;
46845;SDS011;33947;46.804;134.252;2023-06-22T02:29:31;7.35;;;3.67;;
46845;SDS011;33947;46.804;134.252;2023-06-22T02:34:26;12.40;;;4.18;;
46845;SDS011;33947;46.804;134.252;2023-06-22T03:12:42;6.88;;;3.72;;
46845;SDS011;33947;46.804;134.252;2023-06-22T03:15:57;10.52;;;4.35;;
46845;SDS011;33947;46.804;134.252;2023-06-22T03:19:06;12.60;;;4.28;;
46845;SDS011;33947;46.804;134.252;2023-06-22T03:22:15;11.35;;;4.15;;
46845;SDS011;33947;46.804;134.252;2023-06-22T03:29:13;15.82;;;4.68;;
46845;SDS011;33947;46.804;134.252;2023-06-22T03:32:23;10.68;;;4.10;;
46845;SDS011;33947;46.804;134.252;2023-06-22T03:35:30;6.43;;;3.72;;
46845;SDS011;33947;46.804;134.252;2023-06-22T03:38:37;21.13;;;4.60;;
46845;SDS011;33947;46.804;134.252;2023-06-22T03:41:48;9.63;;;3.85;;
46845;SDS011;33947;46.804;134.252;2023-06-22T03:44:55;8.88;;;3.67;;
46845;SDS011;33947;46.804;134.252;2023-06-22T03:48:04;8.95;;;4.20;;
46845;SDS011;33947;46.804;134.252;2023-06-22T03:51:15;14.15;;;4.47;;
46845;SDS011;33947;46.804;134.252;2023-06-22T03:54:21;30.63;;;6.05;;
46845;SDS011;33947;46.804;134.252;2023-06-22T03:57:29;18.80;;;4.82;;
46845;SDS011;33947;46.804;134.252;2023-06-22T04:00:36;8.55;;;4.18;;
46845;SDS011;33947;46.804;134.252;2023-06-22T04:03:42;14.02;;;4.53;;
46845;SDS011;33947;46.804;134.252;2023-06-22T04:06:49;12.75;;;4.22;;
46845;SDS011;33947;46.804;134.252;2023-06-22T04:09:55;13.38;;;4.35;;
46845;SDS011;33947;46.804;134.252;2023-06-22T04:13:02;15.45;;;5.72;;
46845;SDS011;33947;46.804;134.252;2023-06-22T04:16:08;30.83;;;6.15;;
46845;SDS011;33947;46.804;134.252;2023-06-22T04:19:14;40.03;;;6.63;;
46845;SDS011;33947;46.804;134.252;2023-06-22T04:22:23;11.63;;;4.20;;
46845;SDS011;33947;46.804;134.252;2023-06-22T04:25:29;15.20;;;5.15;;
46845;SDS011;33947;46.804;134.252;2023-06-22T04:28:35;13.95;;;4.03;;
46845;SDS011;33947;46.804;134.252;2023-06-22T04:31:42;8.60;;;3.38;;
46845;SDS011;33947;46.804;134.252;2023-06-22T04:34:48;17.30;;;4.38;;
46845;SDS011;33947;46.804;134.252;2023-06-22T04:37:57;8.88;;;3.78;;
46845;SDS011;33947;46.804;134.252;2023-06-22T04:41:04;7.55;;;3.42;;
46845;SDS011;33947;46.804;134.252;2023-06-22T04:44:16;4.88;;;3.40;;
46845;SDS011;33947;46.804;134.252;2023-06-22T04:47:30;7.30;;;3.35;;
46845;SDS011;33947;46.804;134.252;2023-06-22T04:50:37;14.50;;;4.55;;
46845;SDS011;33947;46.804;134.252;2023-06-22T04:53:48;9.48;;;3.50;;
46845;SDS011;33947;46.804;134.252;2023-06-22T04:56:55;8.80;;;3.65;;
46845;SDS011;33947;46.804;134.252;2023-06-22T05:00:07;7.18;;;3.38;;
46845;SDS011;33947;46.804;134.252;2023-06-22T05:03:29;26.85;;;5.45;;
46845;SDS011;33947;46.804;134.252;2023-06-22T05:06:35;7.38;;;4.00;;
46845;SDS011;33947;46.804;134.252;2023-06-22T05:09:44;7.75;;;3.85;;
46845;SDS011;33947;46.804;134.252;2023-06-22T05:12:53;5.38;;;3.35;;
46845;SDS011;33947;46.804;134.252;2023-06-22T05:16:00;9.23;;;3.95;;
46845;SDS011;33947;46.804;134.252;2023-06-22T05:19:09;8.82;;;3.78;;
46845;SDS011;33947;46.804;134.252;2023-06-22T05:22:18;7.78;;;3.28;;
46845;SDS011;33947;46.804;134.252;2023-06-22T05:25:25;12.07;;;3.83;;
46845;SDS011;33947;46.804;134.252;2023-06-22T05:28:35;8.90;;;3.58;;
46845;SDS011;33947;46.804;134.252;2023-06-22T05:31:42;6.22;;;3.92;;
46845;SDS011;33947;46.804;134.252;2023-06-22T05:34:52;5.85;;;3.63;;
46845;SDS011;33947;46.804;134.252;2023-06-22T05:37:59;5.25;;;3.17;;
46845;SDS011;33947;46.804;134.252;2023-06-22T05:41:05;7.28;;;4.07;;
46845;SDS011;33947;46.804;134.252;2023-06-22T05:44:12;8.40;;;3.90;;
46845;SDS011;33947;46.804;134.252;2023-06-22T05:47:19;8.05;;;3.95;;
46845;SDS011;33947;46.804;134.252;2023-06-22T05:50:25;8.80;;;4.03;;
46845;SDS011;33947;46.804;134.252;2023-06-22T05:53:33;9.10;;;3.42;;
46845;SDS011;33947;46.804;134.252;2023-06-22T05:56:39;6.80;;;3.60;;
46845;SDS011;33947;46.804;134.252;2023-06-22T05:59:47;8.35;;;3.40;;
46845;SDS011;33947;46.804;134.252;2023-06-22T06:02:53;6.43;;;3.45;;
46845;SDS011;33947;46.804;134.252;2023-06-22T06:06:00;8.57;;;4.03;;
46845;SDS011;33947;46.804;134.252;2023-06-22T06:09:08;12.75;;;7.60;;
46845;SDS011;33947;46.804;134.252;2023-06-22T06:12:14;7.50;;;4.30;;
46845;SDS011;33947;46.804;134.252;2023-06-22T06:15:21;7.90;;;3.75;;
46845;SDS011;33947;46.804;134.252;2023-06-22T06:18:28;11.57;;;9.57;;
46845;SDS011;33947;46.804;134.252;2023-06-22T06:21:34;12.43;;;6.88;;
46845;SDS011;33947;46.804;134.252;2023-06-22T06:24:41;7.13;;;5.32;;
46845;SDS011;33947;46.804;134.252;2023-06-22T06:27:49;7.50;;;4.35;;
46845;SDS011;33947;46.804;134.252;2023-06-22T06:30:58;7.90;;;3.95;;
46845;SDS011;33947;46.804;134.252;2023-06-22T06:34:04;8.45;;;3.72;;
46845;SDS011;33947;46.804;134.252;2023-06-22T06:37:08;8.43;;;4.43;;
46845;SDS011;33947;46.804;134.252;2023-06-22T06:40:15;7.90;;;4.70;;
46845;SDS011;33947;46.804;134.252;2023-06-22T06:43:23;8.38;;;4.60;;
46845;SDS011;33947;46.804;134.252;2023-06-22T06:46:30;16.50;;;10.15;;
46845;SDS011;33947;46.804;134.252;2023-06-22T06:49:36;12.40;;;5.38;;
46845;SDS011;33947;46.804;134.252;2023-06-22T06:52:43;7.88;;;4.93;;
46845;SDS011;33947;46.804;134.252;2023-06-22T06:55:55;9.85;;;4.90;;
46845;SDS011;33947;46.804;134.252;2023-06-22T06:59:01;5.93;;;4.80;;
46845;SDS011;33947;46.804;134.252;2023-06-22T07:02:10;9.98;;;4.68;;
46845;SDS011;33947;46.804;134.252;2023-06-22T07:05:17;7.57;;;4.57;;
46845;SDS011;33947;46.804;134.252;2023-06-22T07:08:23;10.18;;;5.53;;
46845;SDS011;33947;46.804;134.252;2023-06-22T07:11:30;9.50;;;6.25;;
46845;SDS011;33947;46.804;134.252;2023-06-22T07:14:36;12.30;;;5.88;;
46845;SDS011;33947;46.804;134.252;2023-06-22T07:17:49;8.57;;;4.55;;
46845;SDS011;33947;46.804;134.252;2023-06-22T07:20:58;9.07;;;4.40;;
46845;SDS011;33947;46.804;134.252;2023-06-22T07:24:10;8.10;;;4.65;;
46845;SDS011;33947;46.804;134.252;2023-06-22T07:27:17;9.68;;;4.47;;
46845;SDS011;33947;46.804;134.252;2023-06-22T07:30:27;7.22;;;4.55;;
46845;SDS011;33947;46.804;134.252;2023-06-22T07:33:35;7.47;;;4.60;;
46845;SDS011;33947;46.804;134.252;2023-06-22T07:36:39;7.35;;;4.20;;
46845;SDS011;33947;46.804;134.252;2023-06-22T07:43:26;16.98;;;5.10;;
46845;SDS011;33947;46.804;134.252;2023-06-22T07:47:46;12.90;;;6.45;;
46845;SDS011;33947;46.804;134.252;2023-06-22T07:51:00;16.55;;;6.95;;
46845;SDS011;33947;46.804;134.252;2023-06-22T07:54:09;13.27;;;7.38;;
46845;SDS011;33947;46.804;134.252;2023-06-22T07:57:17;16.10;;;8.57;;
46845;SDS011;33947;46.804;134.252;2023-06-22T08:00:24;18.17;;;8.20;;
46845;SDS011;33947;46.804;134.252;2023-06-22T08:03:30;14.98;;;9.93;;
46845;SDS011;33947;46.804;134.252;2023-06-22T08:06:38;20.70;;;11.52;;
46845;SDS011;33947;46.804;134.252;2023-06-22T08:09:46;17.13;;;9.57;;
46845;SDS011;33947;46.804;134.252;2023-06-22T08:12:54;11.98;;;8.30;;
46845;SDS011;33947;46.804;134.252;2023-06-22T08:16:01;13.77;;;8.27;;
46845;SDS011;33947;46.804;134.252;2023-06-22T08:19:07;12.13;;;7.35;;
46845;SDS011;33947;46.804;134.252;2023-06-22T08:22:13;14.20;;;7.35;;
46845;SDS011;33947;46.804;134.252;2023-06-22T08:25:27;10.25;;;6.60;;
46845;SDS011;33947;46.804;134.252;2023-06-22T08:28:35;10.32;;;6.45;;
46845;SDS011;33947;46.804;134.252;2023-06-22T08:31:44;9.90;;;5.95;;
46845;SDS011;33947;46.804;134.252;2023-06-22T08:34:54;12.45;;;5.85;;
46845;SDS011;33947;46.804;134.252;2023-06-22T08:38:01;9.43;;;5.95;;
46845;SDS011;33947;46.804;134.252;2023-06-22T08:41:09;9.18;;;5.70;;
46845;SDS011;33947;46.804;134.252;2023-06-22T08:44:17;11.37;;;6.10;;
46845;SDS011;33947;46.804;134.252;2023-06-22T08:47:26;9.85;;;5.70;;
46845;SDS011;33947;46.804;134.252;2023-06-22T08:50:33;15.52;;;7.30;;
46845;SDS011;33947;46.804;134.252;2023-06-22T08:53:39;13.15;;;7.70;;
46845;SDS011;33947;46.804;134.252;2023-06-22T08:56:53;14.00;;;6.80;;
46845;SDS011;33947;46.804;134.252;2023-06-22T08:59:59;9.90;;;6.38;;
46845;SDS011;33947;46.804;134.252;2023-06-22T09:03:10;12.68;;;6.72;;
46845;SDS011;33947;46.804;134.252;2023-06-22T09:06:17;13.27;;;6.30;;
46845;SDS011;33947;46.804;134.252;2023-06-22T09:09:25;12.77;;;5.10;;
46845;SDS011;33947;46.804;134.252;2023-06-22T09:12:32;9.07;;;5.32;;
46845;SDS011;33947;46.804;134.252;2023-06-22T09:15:39;11.63;;;5.57;;
46845;SDS011;33947;46.804;134.252;2023-06-22T09:18:48;10.73;;;5.18;;
46845;SDS011;33947;46.804;134.252;2023-06-22T09:21:55;11.38;;;5.63;;
46845;SDS011;33947;46.804;134.252;2023-06-22T09:25:01;10.45;;;5.55;;
46845;SDS011;33947;46.804;134.252;2023-06-22T09:28:12;7.80;;;5.13;;
46845;SDS011;33947;46.804;134.252;2023-06-22T09:31:20;12.35;;;5.38;;
46845;SDS011;33947;46.804;134.252;2023-06-22T09:34:31;12.13;;;6.68;;
46845;SDS011;33947;46.804;134.252;2023-06-22T09:37:44;13.93;;;8.80;;
46845;SDS011;33947;46.804;134.252;2023-06-22T09:40:53;16.50;;;9.18;;
46845;SDS011;33947;46.804;134.252;2023-06-22T09:44:04;15.60;;;6.93;;
46845;SDS011;33947;46.804;134.252;2023-06-22T09:51:16;12.98;;;7.07;;
46845;SDS011;33947;46.804;134.252;2023-06-22T10:04:02;14.43;;;7.38;;
46845;SDS011;33947;46.804;134.252;2023-06-22T10:07:16;14.40;;;8.00;;
46845;SDS011;33947;46.804;134.252;2023-06-22T10:10:35;13.15;;;7.70;;
46845;SDS011;33947;46.804;134.252;2023-06-22T10:14:07;11.20;;;7.45;;
46845;SDS011;33947;46.804;134.252;2023-06-22T10:17:46;14.13;;;7.78;;
46845;SDS011;33947;46.804;134.252;2023-06-22T10:21:06;13.50;;;8.02;;
46845;SDS011;33947;46.804;134.252;2023-06-22T10:24:29;16.20;;;7.40;;
46845;SDS011;33947;46.804;134.252;2023-06-22T10:27:54;13.48;;;7.43;;
46845;SDS011;33947;46.804;134.252;2023-06-22T10:31:25;15.52;;;7.18;;
46845;SDS011;33947;46.804;134.252;2023-06-22T10:35:16;19.40;;;7.47;;
46845;SDS011;33947;46.804;134.252;2023-06-22T10:39:31;17.27;;;7.60;;
46845;SDS011;33947;46.804;134.252;2023-06-22T10:43:47;19.95;;;8.68;;
46845;SDS011;33947;46.804;134.252;2023-06-22T10:48:27;14.25;;;8.43;;
46845;SDS011;33947;46.804;134.252;2023-06-22T10:51:34;22.55;;;11.07;;
46845;SDS011;33947;46.804;134.252;2023-06-22T10:54:48;16.58;;;10.50;;
46845;SDS011;33947;46.804;134.252;2023-06-22T10:57:55;33.20;;;11.27;;
46845;SDS011;33947;46.804;134.252;2023-06-22T11:01:08;19.70;;;11.60;;
46845;SDS011;33947;46.804;134.252;2023-06-22T11:04:34;16.73;;;10.95;;
46845;SDS011;33947;46.804;134.252;2023-06-22T11:07:41;19.42;;;10.32;;
46845;SDS011;33947;46.804;134.252;2023-06-22T11:10:51;19.98;;;12.02;;
46845;SDS011;33947;46.804;134.252;2023-06-22T11:13:58;18.95;;;13.35;;
46845;SDS011;33947;46.804;134.252;2023-06-22T11:17:05;19.05;;;12.02;;
46845;SDS011;33947;46.804;134.252;2023-06-22T11:20:14;18.23;;;12.45;;
46845;SDS011;33947;46.804;134.252;2023-06-22T11:23:21;21.77;;;11.73;;
46845;SDS011;33947;46.804;134.252;2023-06-22T11:26:27;16.33;;;9.98;;
46845;SDS011;33947;46.804;134.252;2023-06-22T11:29:34;14.57;;;9.52;;
46845;SDS011;33947;46.804;134.252;2023-06-22T11:32:42;12.95;;;9.68;;
46845;SDS011;33947;46.804;134.252;2023-06-22T11:35:48;12.82;;;9.00;;
46845;SDS011;33947;46.804;134.252;2023-06-22T11:38:54;13.05;;;8.57;;
46845;SDS011;33947;46.804;134.252;2023-06-22T11:42:01;12.70;;;8.00;;
46845;SDS011;33947;46.804;134.252;2023-06-22T11:45:08;17.25;;;8.50;;
46845;SDS011;33947;46.804;134.252;2023-06-22T11:48:13;29.55;;;16.85;;
46845;SDS011;33947;46.804;134.252;2023-06-22T11:51:20;22.15;;;14.38;;
46845;SDS011;33947;46.804;134.252;2023-06-22T11:54:27;18.90;;;12.00;;
46845;SDS011;33947;46.804;134.252;2023-06-22T11:57:34;15.27;;;10.23;;
46845;SDS011;33947;46.804;134.252;2023-06-22T12:00:39;16.50;;;9.40;;
46845;SDS011;33947;46.804;134.252;2023-06-22T12:03:58;14.98;;;9.15;;
46845;SDS011;33947;46.804;134.252;2023-06-22T12:07:04;13.82;;;8.57;;
46845;SDS011;33947;46.804;134.252;2023-06-22T12:10:11;14.50;;;9.07;;
46845;SDS011;33947;46.804;134.252;2023-06-22T12:13:20;14.82;;;8.48;;
46845;SDS011;33947;46.804;134.252;2023-06-22T12:16:28;16.60;;;9.60;;
46845;SDS011;33947;46.804;134.252;2023-06-22T12:19:40;14.68;;;8.57;;
46845;SDS011;33947;46.804;134.252;2023-06-22T12:22:54;13.98;;;8.63;;
46845;SDS011;33947;46.804;134.252;2023-06-22T12:26:03;17.20;;;9.13;;
46845;SDS011;33947;46.804;134.252;2023-06-22T12:29:13;13.70;;;8.55;;
46845;SDS011;33947;46.804;134.252;2023-06-22T12:32:20;14.43;;;9.48;;
46845;SDS011;33947;46.804;134.252;2023-06-22T12:35:29;14.35;;;8.90;;
46845;SDS011;33947;46.804;134.252;2023-06-22T12:38:44;13.38;;;8.05;;
46845;SDS011;33947;46.804;134.252;2023-06-22T12:41:51;12.50;;;8.18;;
46845;SDS011;33947;46.804;134.252;2023-06-22T12:45:01;15.15;;;7.72;;
46845;SDS011;33947;46.804;134.252;2023-06-22T12:48:08;12.38;;;7.38;;
46845;SDS011;33947;46.804;134.252;2023-06-22T12:51:21;13.63;;;7.68;;
46845;SDS011;33947;46.804;134.252;2023-06-22T12:54:26;13.13;;;7.50;;
46845;SDS011;33947;46.804;134.252;2023-06-22T12:57:38;14.45;;;8.68;;
46845;SDS011;33947;46.804;134.252;2023-06-22T13:00:44;11.55;;;8.38;;
46845;SDS011;33947;46.804;134.252;2023-06-22T13:03:53;14.27;;;7.85;;
46845;SDS011;33947;46.804;134.252;2023-06-22T13:07:00;12.90;;;8.27;;
46845;SDS011;33947;46.804;134.252;2023-06-22T13:10:24;14.93;;;9.48;;
46845;SDS011;33947;46.804;134.252;2023-06-22T13:13:33;12.68;;;9.23;;
46845;SDS011;33947;46.804;134.252;2023-06-22T13:16:40;16.77;;;9.18;;
46845;SDS011;33947;46.804;134.252;2023-06-22T13:19:52;19.45;;;9.50;;
46845;SDS011;33947;46.804;134.252;2023-06-22T13:22:59;10.60;;;7.43;;
46845;SDS011;33947;46.804;134.252;2023-06-22T13:26:05;16.70;;;8.73;;
46845;SDS011;33947;46.804;134.252;2023-06-22T13:29:12;13.38;;;8.32;;
46845;SDS011;33947;46.804;134.252;2023-06-22T13:32:21;10.95;;;7.53;;
46845;SDS011;33947;46.804;134.252;2023-06-22T13:35:28;11.82;;;7.13;;
46845;SDS011;33947;46.804;134.252;2023-06-22T13:38:35;12.80;;;7.63;;
46845;SDS011;33947;46.804;134.252;2023-06-22T13:41:46;14.52;;;8.00;;
46845;SDS011;33947;46.804;134.252;2023-06-22T13:44:58;11.80;;;7.80;;
46845;SDS011;33947;46.804;134.252;2023-06-22T13:48:08;10.57;;;7.95;;
46845;SDS011;33947;46.804;134.252;2023-06-22T13:51:14;16.17;;;8.63;;
46845;SDS011;33947;46.804;134.252;2023-06-22T13:54:18;11.95;;;7.90;;
46845;SDS011;33947;46.804;134.252;2023-06-22T13:57:27;15.02;;;7.65;;
46845;SDS011;33947;46.804;134.252;2023-06-22T14:00:33;12.48;;;7.05;;
46845;SDS011;33947;46.804;134.252;2023-06-22T14:03:40;12.25;;;6.47;;
46845;SDS011;33947;46.804;134.252;2023-06-22T14:06:47;10.63;;;6.63;;
46845;SDS011;33947;46.804;134.252;2023-06-22T14:09:53;10.57;;;6.53;;
46845;SDS011;33947;46.804;134.252;2023-06-22T14:13:00;10.98;;;6.70;;
46845;SDS011;33947;46.804;134.252;2023-06-22T14:16:06;9.50;;;6.88;;
46845;SDS011;33947;46.804;134.252;2023-06-22T14:19:12;8.35;;;5.85;;
46845;SDS011;33947;46.804;134.252;2023-06-22T14:22:19;9.43;;;6.13;;
46845;SDS011;33947;46.804;134.252;2023-06-22T14:25:26;12.18;;;6.53;;
46845;SDS011;33947;46.804;134.252;2023-06-22T14:28:32;11.90;;;6.25;;
46845;SDS011;33947;46.804;134.252;2023-06-22T14:31:39;8.55;;;6.20;;
46845;SDS011;33947;46.804;134.252;2023-06-22T14:34:46;8.15;;;6.00;;
46845;SDS011;33947;46.804;134.252;2023-06-22T14:37:53;9.35;;;5.75;;
46845;SDS011;33947;46.804;134.252;2023-06-22T14:40:59;11.23;;;6.57;;
46845;SDS011;33947;46.804;134.252;2023-06-22T14:44:17;9.40;;;6.32;;
46845;SDS011;33947;46.804;134.252;2023-06-22T14:47:24;8.23;;;5.88;;
46845;SDS011;33947;46.804;134.252;2023-06-22T14:50:30;10.38;;;5.20;;
46845;SDS011;33947;46.804;134.252;2023-06-22T14:53:37;9.30;;;5.60;;
46845;SDS011;33947;46.804;134.252;2023-06-22T14:56:43;8.40;;;6.18;;
46845;SDS011;33947;46.804;134.252;2023-06-22T15:03:13;6.57;;;5.15;;
46845;SDS011;33947;46.804;134.252;2023-06-22T15:06:56;12.13;;;6.13;;
46845;SDS011;33947;46.804;134.252;2023-06-22T15:10:03;7.57;;;5.00;;
46845;SDS011;33947;46.804;134.252;2023-06-22T15:13:11;7.55;;;5.55;;
46845;SDS011;33947;46.804;134.252;2023-06-22T15:16:17;7.22;;;5.18;;
46845;SDS011;33947;46.804;134.252;2023-06-22T15:19:29;9.50;;;5.57;;
46845;SDS011;33947;46.804;134.252;2023-06-22T15:22:44;9.05;;;5.32;;
46845;SDS011;33947;46.804;134.252;2023-06-22T15:25:50;8.18;;;5.07;;
46845;SDS011;33947;46.804;134.252;2023-06-22T15:28:57;10.80;;;5.72;;
46845;SDS011;33947;46.804;134.252;2023-06-22T15:32:03;10.57;;;5.47;;
46845;SDS011;33947;46.804;134.252;2023-06-22T15:35:14;12.07;;;5.40;;
46845;SDS011;33947;46.804;134.252;2023-06-22T15:38:25;11.00;;;5.55;;
46845;SDS011;33947;46.804;134.252;2023-06-22T15:41:34;7.53;;;5.95;;
46845;SDS011;33947;46.804;134.252;2023-06-22T15:44:40;11.98;;;5.93;;
46845;SDS011;33947;46.804;134.252;2023-06-22T15:47:46;9.43;;;5.40;;
46845;SDS011;33947;46.804;134.252;2023-06-22T15:50:53;10.80;;;5.70;;
46845;SDS011;33947;46.804;134.252;2023-06-22T15:53:59;9.35;;;6.43;;
46845;SDS011;33947;46.804;134.252;2023-06-22T15:57:05;8.52;;;5.60;;
46845;SDS011;33947;46.804;134.252;2023-06-22T16:00:10;8.63;;;5.53;;
46845;SDS011;33947;46.804;134.252;2023-06-22T16:03:17;9.10;;;6.30;;
46845;SDS011;33947;46.804;134.252;2023-06-22T16:06:23;9.02;;;6.00;;
46845;SDS011;33947;46.804;134.252;2023-06-22T16:09:28;8.93;;;5.90;;
46845;SDS011;33947;46.804;134.252;2023-06-22T16:12:36;9.57;;;6.13;;
46845;SDS011;33947;46.804;134.252;2023-06-22T16:15:47;9.82;;;5.88;;
46845;SDS011;33947;46.804;134.252;2023-06-22T16:18:54;12.55;;;6.00;;
46845;SDS011;33947;46.804;134.252;2023-06-22T16:22:01;12.15;;;5.80;;
46845;SDS011;33947;46.804;134.252;2023-06-22T16:25:05;10.27;;;6.07;;
46845;SDS011;33947;46.804;134.252;2023-06-22T16:28:13;9.02;;;5.47;;
46845;SDS011;33947;46.804;134.252;2023-06-22T16:31:20;11.13;;;6.15;;
46845;SDS011;33947;46.804;134.252;2023-06-22T16:34:27;8.38;;;5.55;;
46845;SDS011;33947;46.804;134.252;2023-06-22T16:37:33;7.85;;;5.70;;
46845;SDS011;33947;46.804;134.252;2023-06-22T16:40:39;8.50;;;5.40;;
46845;SDS011;33947;46.804;134.252;2023-06-22T16:43:45;7.18;;;5.45;;
46845;SDS011;33947;46.804;134.252;2023-06-22T16:46:52;10.23;;;5.13;;
46845;SDS011;33947;46.804;134.252;2023-06-22T16:49:59;8.23;;;5.18;;
46845;SDS011;33947;46.804;134.252;2023-06-22T16:53:06;9.63;;;5.82;;
46845;SDS011;33947;46.804;134.252;2023-06-22T16:56:12;6.78;;;4.95;;
46845;SDS011;33947;46.804;134.252;2023-06-22T16:59:19;8.55;;;5.07;;
46845;SDS011;33947;46.804;134.252;2023-06-22T17:02:26;6.82;;;5.15;;
46845;SDS011;33947;46.804;134.252;2023-06-22T17:05:34;6.25;;;5.25;;
46845;SDS011;33947;46.804;134.252;2023-06-22T17:08:42;8.02;;;5.60;;
46845;SDS011;33947;46.804;134.252;2023-06-22T17:11:51;9.25;;;4.97;;
46845;SDS011;33947;46.804;134.252;2023-06-22T17:15:00;8.98;;;4.90;;
46845;SDS011;33947;46.804;134.252;2023-06-22T17:18:09;7.63;;;5.22;;
46845;SDS011;33947;46.804;134.252;2023-06-22T17:21:21;9.57;;;5.20;;
46845;SDS011;33947;46.804;134.252;2023-06-22T17:24:28;10.52;;;5.07;;
46845;SDS011;33947;46.804;134.252;2023-06-22T17:27:35;6.63;;;5.38;;
46845;SDS011;33947;46.804;134.252;2023-06-22T17:30:45;7.65;;;5.28;;
46845;SDS011;33947;46.804;134.252;2023-06-22T17:33:51;8.73;;;5.00;;
46845;SDS011;33947;46.804;134.252;2023-06-22T17:36:58;8.00;;;5.20;;
46845;SDS011;33947;46.804;134.252;2023-06-22T17:40:07;7.78;;;5.78;;
46845;SDS011;33947;46.804;134.252;2023-06-22T17:43:22;8.75;;;5.38;;
46845;SDS011;33947;46.804;134.252;2023-06-22T17:46:33;8.63;;;5.80;;
46845;SDS011;33947;46.804;134.252;2023-06-22T17:49:43;10.90;;;5.97;;
46845;SDS011;33947;46.804;134.252;2023-06-22T17:52:50;9.57;;;5.97;;
46845;SDS011;33947;46.804;134.252;2023-06-22T17:56:03;10.32;;;5.82;;
46845;SDS011;33947;46.804;134.252;2023-06-22T17:59:09;8.82;;;5.97;;
46845;SDS011;33947;46.804;134.252;2023-06-22T18:02:23;7.07;;;5.07;;
46845;SDS011;33947;46.804;134.252;2023-06-22T18:05:31;12.73;;;5.60;;
46845;SDS011;33947;46.804;134.252;2023-06-22T18:08:40;8.43;;;5.57;;
46845;SDS011;33947;46.804;134.252;2023-06-22T18:11:47;8.05;;;5.53;;
46845;SDS011;33947;46.804;134.252;2023-06-22T18:14:55;8.38;;;5.82;;
46845;SDS011;33947;46.804;134.252;2023-06-22T18:18:09;8.95;;;5.50;;
46845;SDS011;33947;46.804;134.252;2023-06-22T18:21:19;8.02;;;5.43;;
46845;SDS011;33947;46.804;134.252;2023-06-22T18:24:27;8.88;;;5.30;;
46845;SDS011;33947;46.804;134.252;2023-06-22T18:27:36;11.80;;;6.00;;
46845;SDS011;33947;46.804;134.252;2023-06-22T18:30:43;7.75;;;5.80;;
46845;SDS011;33947;46.804;134.252;2023-06-22T18:33:51;8.02;;;5.20;;
46845;SDS011;33947;46.804;134.252;2023-06-22T18:36:59;9.50;;;5.32;;
46845;SDS011;33947;46.804;134.252;2023-06-22T18:40:11;8.30;;;5.60;;
46845;SDS011;33947;46.804;134.252;2023-06-22T18:43:23;7.63;;;5.05;;
46845;SDS011;33947;46.804;134.252;2023-06-22T18:52:47;9.35;;;5.32;;
46845;SDS011;33947;46.804;134.252;2023-06-22T18:56:12;8.23;;;5.60;;
46845;SDS011;33947;46.804;134.252;2023-06-22T19:02:59;6.67;;;5.13;;
46845;SDS011;33947;46.804;134.252;2023-06-22T19:06:04;6.97;;;5.18;;
46845;SDS011;33947;46.804;134.252;2023-06-22T19:09:13;7.25;;;4.93;;
46845;SDS011;33947;46.804;134.252;2023-06-22T19:12:19;9.98;;;5.68;;
46845;SDS011;33947;46.804;134.252;2023-06-22T19:15:30;7.90;;;5.47;;
46845;SDS011;33947;46.804;134.252;2023-06-22T19:18:41;8.57;;;5.35;;
46845;SDS011;33947;46.804;134.252;2023-06-22T19:21:57;10.35;;;5.45;;
46845;SDS011;33947;46.804;134.252;2023-06-22T19:25:07;6.50;;;5.07;;
46845;SDS011;33947;46.804;134.252;2023-06-22T19:28:26;8.73;;;5.50;;
46845;SDS011;33947;46.804;134.252;2023-06-22T19:31:33;8.57;;;5.53;;
46845;SDS011;33947;46.804;134.252;2023-06-22T19:34:41;8.45;;;4.72;;
46845;SDS011;33947;46.804;134.252;2023-06-22T19:37:51;8.13;;;5.20;;
46845;SDS011;33947;46.804;134.252;2023-06-22T19:41:07;8.20;;;5.65;;
46845;SDS011;33947;46.804;134.252;2023-06-22T19:44:15;7.75;;;5.65;;
46845;SDS011;33947;46.804;134.252;2023-06-22T19:47:21;7.53;;;6.05;;
46845;SDS011;33947;46.804;134.252;2023-06-22T19:50:32;9.90;;;6.32;;
46845;SDS011;33947;46.804;134.252;2023-06-22T19:53:46;8.70;;;5.77;;